2011 Somerset Stampede

back to results

Aug. 20, 2011

2011 Somerset Stampede
Somerset, MI
Provided by Michigan Running Foundation

Overall Female Open Winners




Total
Place Name City Bib No Age Overall Time Pace
1 Dalila John Adrian MI 52 32 11 1:34:56.1 7:15/M


Overall Male Open Winners




Total
Place Name City Bib No Age Overall Time Pace
1 Tom Romanowski Hudson MI 200 41 1 1:21:38.6 6:14/M


Overall Female Master Winners




Total
Place Name City Bib No Age Overall Time Pace
1 Marcy Sacks Albion MI 140 41 20 1:43:25.9 7:54/M


Overall Male Master Winners




Total
Place Name City Bib No Age Overall Time Pace
1 Brian Mazur Jackson MI 27 43 4 1:24:50.0 6:29/M


Male 14 and under




Total
Place Name City Bib No Age Overall Time Pace
1 Anthony Cross Lincoln Park MI 10 14 66 2:02:39.0 9:22/M
2 Chase Swope Cement City MI 36 12 116 2:31:54.5 11:36/M
3 Nick Nelson Swartz Creek MI 162 13 123 2:47:57.3 12:49/M


Female 15 to 17




Total
Place Name City Bib No Age Overall Time Pace
1 Jordan Johnson Battle Creek MI 108 17 46 1:55:11.9 8:48/M
2 Jasmine Kipke Dexter MI 82 17 60 2:01:21.8 9:16/M
3 Megan Eekhoff Dexter MI 149 17 61 2:01:22.5 9:16/M
4 Courtney Reed Battle Creek MI 47 17 85 2:11:42.1 10:03/M
5 Lauryn Hendrickson Jackson MI 133 15 92 2:14:59.8 10:18/M
6 Hannah Gingerich Ann Arbor MI 75 17 101 2:18:44.0 10:35/M


Female 18 to 24




Total
Place Name City Bib No Age Overall Time Pace
1 Mandi Hohnstadt Macomb MI 138 23 16 1:41:11.5 7:43/M
2 Anna Kramer Lansing MI 215 24 24 1:45:49.0 8:05/M
3 Jourdon Kopec White Lake MI 112 21 55 1:58:57.0 9:05/M
4 Julie Jongsma Dearborn MI 116 21 62 2:01:22.7 9:16/M
5 Brenna Stow Saline MI 26 18 86 2:11:47.1 10:04/M
6 Katie Hosier Indianapolis IN 123 23 88 2:12:15.8 10:06/M
7 Mariah Wielgos Bronson MI 141 20 93 2:15:24.6 10:20/M
8 Allison Wielgos Bronson MI 3 24 98 2:16:48.7 10:27/M
9 Sylvia Fisher Adrian MI 195 19 100 2:18:11.8 10:33/M
10 Ksenia Leszczyk Mississauga ON 131 22 104 2:22:47.6 10:54/M
11 Rachel Preston Mississauga ON 168 23 107 2:23:48.2 10:59/M
12 Kelsey Strait Davison MI 126 21 117 2:33:21.0 11:42/M


Male 18 to 24




Total
Place Name City Bib No Age Overall Time Pace
1 Austin Taylor Ann Arbor MI 244 22 2 1:21:51.2 6:15/M
2 David McComb Lansing MI 56 23 3 1:23:39.8 6:23/M
3 Michael Greening Canton MI 151 21 15 1:40:36.9 7:41/M
4 Josh Oneil Mississauga ONTARI 110 24 94 2:15:27.5 10:20/M


Female 25 to 29




Total
Place Name City Bib No Age Overall Time Pace
1 Renee Russell Monroe MI 172 25 75 2:07:49.0 9:45/M
2 Sarah Wilhite Fort Wayne IN 182 25 87 2:12:02.1 10:05/M
3 Michelle Jongsma North Charleston S 153 27 113 2:30:50.0 11:31/M
4 Erika Goodson Tecumseh MI 222 26 121 2:37:22.2 12:01/M


Male 25 to 29




Total
Place Name City Bib No Age Overall Time Pace
1 Robert Schwartz Jackson MI 177 29 8 1:30:23.8 6:54/M
2 Beau Carnes Saginaw MI 18 28 18 1:42:05.3 7:48/M
3 Matthew McDowell Hillsdale MI 147 25 53 1:58:41.0 9:04/M
4 Ward Walling Jackson MI 208 26 57 1:59:57.5 9:09/M
5 Don Griffin Noblesville IN 62 26 110 2:25:41.4 11:07/M
6 Paul Bosworth Huntington Woods M 167 27 118 2:33:58.1 11:45/M


Female 30 to 34




Total
Place Name City Bib No Age Overall Time Pace
1 Stephanie Kapanawski Southgate MI 190 30 21 1:44:24.9 7:58/M
2 Rachel Palmer La Salle MI 169 33 37 1:52:42.4 8:36/M
3 Ann Smart Adrian MI 8 32 56 1:59:09.4 9:06/M
4 Kim Otto Pleasant Lake MI 212 30 80 2:09:26.2 9:53/M
5 Kendra Rodriguez Adrian MI 128 31 82 2:09:48.7 9:55/M
6 Andrea Lawson Ann Arbor MI 238 30 96 2:16:36.0 10:26/M
7 Beth Gillespie Charleston IL 21 33 97 2:16:36.2 10:26/M
8 April Birts Fort Wayne IN 14 30 109 2:25:25.4 11:06/M
9 Nichole Wheaton Brooklyn MI 161 33 119 2:35:09.8 11:51/M
10 Jennifer Spencer Jackson MI 94 32 125 2:47:59.2 12:49/M


Male 30 to 34




Total
Place Name City Bib No Age Overall Time Pace
1 Cam McLord Ypsilanti MI 265 31 6 1:28:51.7 6:47/M
2 Jay Hudson Oak Park MI 87 31 9 1:34:13.4 7:12/M
3 Mike Butler Munith MI 155 33 12 1:35:08.9 7:16/M
4 Denny Myers Brooklyn MI 58 33 34 1:51:42.8 8:32/M
5 Jason Fitzgibbons Jackson MI 85 34 35 1:52:02.9 8:33/M
6 Jeremy Spencer Marshall MI 97 34 41 1:53:52.2 8:42/M
7 Evan Himes Monroe MI 72 30 43 1:53:53.4 8:42/M
8 Joshua Smith Franklin MA 111 32 105 2:22:54.5 10:55/M
9 Kenneth Bumgardner Canton MI 129 32 106 2:23:15.3 10:56/M


Female 35 to 39




Total
Place Name City Bib No Age Overall Time Pace
1 Mindy Goetz Blissfield MI 156 37 40 1:53:49.8 8:41/M
2 Melissa McKelvey Britton MI 150 35 48 1:55:30.4 8:49/M
3 Abby O'Haver Dexter MI 2 37 65 2:02:15.6 9:20/M
4 Christine Palmer Jackson MI 42 35 70 2:04:28.8 9:30/M
5 Cynthia Larson Milan MI 49 39 78 2:08:35.5 9:49/M
6 Crystal Dietrich Onsted MI 48 38 83 2:10:12.7 9:56/M
7 Kate Johnson Franklin MA 119 35 89 2:12:57.8 10:09/M


Male 35 to 39




Total
Place Name City Bib No Age Overall Time Pace
1 Mark Good Jackson MI 223 38 5 1:26:48.8 6:38/M
2 Anthony Lee Novi MI 12 38 7 1:30:16.7 6:53/M
3 Jason Khon Jackson MI 216 37 10 1:34:33.4 7:13/M
4 Nathan Wilson China MI 218 35 17 1:41:52.2 7:47/M
5 Wolfgang Schauss Ypsilanti MI 210 38 23 1:45:39.1 8:04/M
6 Chris Kahila Centreville MI 41 38 39 1:53:34.7 8:40/M
7 Tony Hills Bryan OH 203 39 49 1:56:51.5 8:55/M
8 Chad Weldy Alto MI 34 37 74 2:06:38.8 9:40/M
9 Kyle Nelson Swartz Creek MI 132 37 124 2:47:58.2 12:49/M


Female 40 to 44




Total
Place Name City Bib No Age Overall Time Pace
1 Laura Lilly Adrian MI 211 41 32 1:50:08.6 8:24/M
2 Karen Eekhoff Dexter MI 118 40 69 2:03:57.6 9:28/M
3 Denise Dashner Temperance MI 57 41 72 2:06:23.4 9:39/M
4 Katherine Gillman Whitmore Lake MI 121 44 77 2:08:35.3 9:49/M
5 Lisa Fox Saline MI 135 43 90 2:13:26.8 10:11/M
6 Jacqueline Conz Wyandotte MI 79 40 99 2:16:56.3 10:27/M
7 Mindy Schwab Lapeer MI 157 40 120 2:37:20.8 12:01/M


Male 40 to 44




Total
Place Name City Bib No Age Overall Time Pace
1 Jeff Klingler Coldwater MI 89 44 13 1:39:47.6 7:37/M
2 Jeffery Bain Riverview MI 92 40 28 1:48:20.6 8:16/M
3 Rick Holbdy Gibralter MI 174 40 31 1:49:34.4 8:22/M
4 John Yohe 227 42 36 1:52:15.3 8:34/M
5 Scott Newsom Sylvania OH 183 40 51 1:57:23.5 8:58/M
6 Mike Knapp Carleton MI 154 43 52 1:57:59.4 9:00/M
7 Rob Clifton Ortonville MI 176 43 59 2:00:24.9 9:11/M
8 David Ambs Cement City MI 240 43 73 2:06:34.0 9:40/M
9 Joe Auger Ann Arbor MI 102 40 76 2:08:03.1 9:46/M


Female 45 to 49




Total
Place Name City Bib No Age Overall Time Pace
1 Ann Jamieson Jackson MI 9 48 33 1:50:39.3 8:27/M
2 Julie Trompeter Adrian MI 114 45 79 2:09:19.0 9:52/M
3 Cheryl Santure Brooklyn MI 39 49 102 2:19:19.9 10:38/M
4 Julie Keller Riga MI 113 46 103 2:21:32.6 10:48/M
5 Jean Fisher Palmyra MI 88 46 111 2:28:36.7 11:21/M
6 Kate Chaffee Saint Paul MN 120 48 114 2:31:16.5 11:33/M
7 Marcia Howell Anchorage AK 139 48 115 2:31:17.2 11:33/M


Male 45 to 49




Total
Place Name City Bib No Age Overall Time Pace
1 Dale Dyer Chelsea MI 51 46 19 1:43:15.6 7:53/M
2 Todd Lipovsky Richland MI 248 46 30 1:49:07.9 8:20/M
3 Jeffrey Leighton South Lyon MI 93 48 54 1:58:51.8 9:04/M
4 John Dempsey Adrian MI 106 46 58 2:00:18.2 9:11/M
5 Paul Milizia Springport MI 166 49 71 2:05:30.1 9:35/M


Female 50 to 54




Total
Place Name City Bib No Age Overall Time Pace
1 Wanda Gunderson Whitmore Lake MI 207 52 47 1:55:23.1 8:48/M
2 Dan Maloy Brooklyn MI 53 54 84 2:10:39.5 9:58/M


Male 50 to 54




Total
Place Name City Bib No Age Overall Time Pace
1 Scott Vogel Jackson MI 253 51 14 1:40:15.5 7:39/M
2 Jim Buck Spring Arbor MI 262 53 22 1:44:31.1 7:59/M
3 Rick Swope Cement City MI 175 54 25 1:47:04.5 8:10/M
4 Marvin Guitar Harrision Twp MI 142 54 26 1:47:07.3 8:11/M
5 Doyle Rice Jackson MI 64 51 29 1:48:42.9 8:18/M
6 Domingo Valadez Temperance MI 60 52 64 2:01:55.8 9:18/M


Female 55 to 59




Total
Place Name City Bib No Age Overall Time Pace
1 Jo Essenmacher Osseo MI 100 55 50 1:57:12.6 8:57/M
2 Sue Quigley Springport MI 192 55 108 2:24:15.6 11:01/M


Male 55 to 59




Total
Place Name City Bib No Age Overall Time Pace
1 Aurelio D'Arcangelis Kalamazoo MI 15 59 38 1:53:05.6 8:38/M
2 Dale Karr Milan MI 261 58 42 1:53:52.7 8:42/M
3 Skip Wilcox Brooklyn MI 188 55 44 1:54:41.7 8:45/M
4 John Blumhardt Adrian MI 105 57 45 1:54:55.5 8:46/M
5 Nelson Wietholter Allen Park MI 160 59 81 2:09:38.7 9:54/M


Female 60 to 66




Total
Place Name City Bib No Age Overall Time Pace
1 Karen Cunningham Hanover MI 243 65 122 2:41:47.5 12:21/M
2 Mary Steinhauser La Salle MI 143 66 126 2:52:56.5 13:12/M


Male 60 to 66




Total
Place Name City Bib No Age Overall Time Pace
1 John Reed Parma MI 226 60 27 1:47:20.8 8:12/M
2 Howard Bosworth Huntington Woods M 78 60 112 2:29:41.8 11:26/M
3 Wally Drogt Jackson MI 206 63 127 2:55:35.5 13:24/M


Male 67 and over




Total
Place Name City Bib No Age Overall Time Pace
1 Richard Jones Highland MI 269 68 95 2:16:22.5 10:25/M
2 Cyril Steinhauser La Salle MI 50 69 128 3:05:57.0 14:12/M
3 Colin Broadworth Augres MI 46 67 129 3:21:39.7 15:24/M


Female no age given




Total
Place Name City Bib No Age Overall Time Pace
1 Maria Iaquaniello Plymouth MI 268 99 67 2:03:18.0 9:25/M
2 Jami Cynecki Midland MI 270 99 68 2:03:18.2 9:25/M


Male no age given




Total
Place Name City Bib No Age Overall Time Pace
1 Aaron Maddox Tecumseh MI 251 99 63 2:01:47.3 9:18/M
2 Joel Wilson Quincy MI 273 99 91 2:13:43.9 10:12/M


Overall Female Open Winners




Total
Place Name City Bib No Age Overall Time Pace
1 Mindy Freeland Albion MI 158 18 20 23:52.5 7:42/M


Overall Male Open Winners




Total
Place Name City Bib No Age Overall Time Pace
1 Bryce Bradley Chelsea MI 260 17 1 16:53.4 5:27/M


Overall Female Master Winners




Total
Place Name City Bib No Age Overall Time Pace
1 Becky Dalton North Adams MI 19 45 42 27:47.8 8:58/M


Overall Male Master Winners




Total
Place Name City Bib No Age Overall Time Pace
1 Joshua Donnelly Jackson MI 225 40 7 20:38.2 6:39/M


Female 14 and under




Total
Place Name City Bib No Age Overall Time Pace
1 Taylor Olson Dexter MI 220 13 24 24:36.5 7:56/M
2 Sophie Debacker Spring Arbor MI 189 12 32 26:36.2 8:35/M
3 Danielle Tucker Toledo OH 54 12 40 27:46.4 8:57/M
4 Emily Cross Lincoln Park MI 67 6 67 33:42.9 10:52/M
5 Tayler Boyd Jackson MI 198 13 76 35:48.2 11:33/M
6 Johanna Nichols Jackson MI 103 9 81 37:18.8 12:02/M
7 Makenzie Swisher Hillsdale MI 136 14 93 46:26.7 14:59/M
8 Lauren Hildenstab Jackson MI 272 6 95 59:09.6 19:05/M


Male 14 and under




Total
Place Name City Bib No Age Overall Time Pace
1 David Trimas Chelsea MI 256 14 8 20:45.2 6:42/M
2 Eric Judd Alto MI 245 12 19 23:47.3 7:40/M
3 Victor Neelis Jackson MI 277 8 79 36:19.2 11:43/M
4 Nickolas Cross Lincoln Park MI 163 8 83 37:32.6 12:06/M
5 Elijah Nichols Jackson MI 65 13 90 40:37.8 13:06/M


Female 15 to 17




Total
Place Name City Bib No Age Overall Time Pace
1 Emma Hofer Brooklyn MI 69 17 23 24:25.7 7:53/M
2 Chantilly Merrill Jackson MI 35 16 27 25:34.3 8:15/M
3 Eliz Wielgos Bronson MI 66 17 53 29:18.8 9:27/M
4 Jaimie Olson Dexter MI 221 15 61 32:47.1 10:35/M


Male 15 to 17




Total
Place Name City Bib No Age Overall Time Pace
1 Bradley Briner Jonesville MI 249 17 2 17:58.6 5:48/M
2 Anthony Fuller Bellevue MI 11 17 3 18:35.8 6:00/M
3 Kage Johnson Jonesville MI 247 16 4 19:08.1 6:10/M
4 Jake Laferriere Jackson MI 80 17 6 19:41.4 6:21/M
5 Matthew Dubensky Cement City MI 146 17 9 21:14.7 6:51/M
6 Travis Sutton Jonesville MI 250 15 11 21:32.8 6:57/M
7 Chase Maxson Bellevue MI 37 15 13 21:56.1 7:05/M
8 Andrew Collison Reading MI 7 16 28 25:35.3 8:15/M


Female 18 to 24




Total
Place Name City Bib No Age Overall Time Pace
1 Jordan Hofer Brooklyn MI 107 19 22 24:23.4 7:52/M
2 Amber Mistopoulos Tipton MI 4 21 29 26:20.1 8:30/M
3 Michelle Strait Davison MI 228 18 46 28:18.2 9:08/M
4 Heidi Wagner Defiance OH 76 21 50 28:45.0 9:16/M
5 Cherokee Dolson Jackson MI 38 18 68 34:31.2 11:08/M
6 Jenny Bayes Clayton MI 96 22 85 37:58.3 12:15/M
7 Kelsey White Stockbridge MI 127 21 89 40:35.2 13:05/M


Male 18 to 24




Total
Place Name City Bib No Age Overall Time Pace
1 Matt Clunis Farmington Hills M 144 19 5 19:12.6 6:12/M
2 Bill Higgins Jackson MI 22 21 48 28:34.2 9:13/M
3 Matthew Lamendola Mars PA 148 21 49 28:44.6 9:16/M


Female 25 to 29




Total
Place Name City Bib No Age Overall Time Pace
1 Sue Renfer Addison MI 193 26 87 39:53.7 12:52/M


Male 25 to 29




Total
Place Name City Bib No Age Overall Time Pace
1 Benjamin Dwyer Jackson MI 20 28 36 26:56.1 8:41/M
2 Erald Gaqi Rives Junction MI 257 29 44 28:05.5 9:04/M
3 Jason Olsen Wixom MI 84 27 55 29:55.9 9:39/M


Female 30 to 34




Total
Place Name City Bib No Age Overall Time Pace
1 Olga Salimova Brooklyn MI 164 33 21 24:21.2 7:51/M
2 Tahny Lowry Brooklyn MI 196 33 41 27:47.2 8:58/M
3 Kelli Clifton Ortonville MI 124 33 45 28:11.1 9:05/M
4 Rebecca Smith Hanover MI 170 34 58 31:57.5 10:18/M


Male 30 to 34




Total
Place Name City Bib No Age Overall Time Pace
1 Bryan Curfman Jackson MI 30 33 14 21:58.9 7:05/M
2 Jason Smart Adrian MI 83 34 35 26:40.0 8:36/M
3 Shawn Patterson Jackson MI 185 34 47 28:19.9 9:08/M
4 Jason Fegan Sault Ste. Marie M 86 34 78 36:17.5 11:42/M


Female 35 to 39




Total
Place Name City Bib No Age Overall Time Pace
1 Kristin Bain Riverview MI 130 37 75 35:45.3 11:32/M


Male 35 to 39




Total
Place Name City Bib No Age Overall Time Pace
1 Eric Swisher Hillsdale MI 71 38 25 24:42.2 7:58/M
2 Chris Debacker Spring Arbor MI 40 38 33 26:36.8 8:35/M


Female 40 to 44




Total
Place Name City Bib No Age Overall Time Pace
1 Julie North Reading MI 117 41 56 31:11.2 10:04/M
2 Robin Christian Parma MI 232 41 57 31:45.9 10:15/M
3 Tricia Masarik Litchfield MI 204 42 69 34:32.2 11:08/M


Male 40 to 44




Total
Place Name City Bib No Age Overall Time Pace
1 Jim Keppler Stevensville MI 259 43 15 22:57.2 7:24/M
2 Don Bernstein Clarklake MI 61 40 17 23:26.3 7:34/M
3 Eric Tucker Temperance MI 267 42 31 26:33.4 8:34/M
4 Duane Smith Jonesville MI 242 41 34 26:38.2 8:35/M
5 David Zysk Somerset MI 55 40 51 29:08.0 9:24/M


Female 45 to 49




Total
Place Name City Bib No Age Overall Time Pace
1 Joan Hofer Brooklyn MI 101 47 64 33:14.5 10:43/M
2 Bobbi Washburn Adrian MI 23 46 66 33:41.9 10:52/M
3 Shelley Knowlan Waldron MI 186 48 71 34:54.0 11:15/M
4 Shiela McEldowney Jackson MI 187 45 73 35:27.7 11:26/M
5 Cindy Devries Ypsilanti MI 44 48 74 35:32.3 11:28/M
6 Ruth McCord Sault Ste. Marie M 179 47 77 36:17.2 11:42/M
7 Carolynn Parmele Jackson MI 32 48 80 36:21.2 11:44/M
8 Malynn Hannewald Stockbridge MI 137 45 91 40:47.4 13:09/M


Male 45 to 49




Total
Place Name City Bib No Age Overall Time Pace
1 Jeff Knowlan Waldron MI 91 48 16 23:08.8 7:28/M
2 Keith Tremmel Swanton OH 236 49 43 27:59.2 9:02/M
3 James Wolodkin Hillsdale MI 255 46 54 29:38.7 9:34/M
4 Cliff Washburn Adrian MI 45 45 70 34:47.9 11:13/M


Female 50 to 54




Total
Place Name City Bib No Age Overall Time Pace
1 Vicki Brown Holt MI 205 50 52 29:10.2 9:25/M
2 Sue Maloy Brooklyn MI 191 54 59 32:29.1 10:29/M
3 Julia Olson Dexter MI 219 53 62 32:50.9 10:35/M
4 Carrie Strait Davison MI 229 51 72 35:05.0 11:19/M


Male 50 to 54




Total
Place Name City Bib No Age Overall Time Pace
1 Rene' Devries Ypsilanti MI 171 50 26 25:17.2 8:09/M
2 Joe Taylor Ann Arbor MI 246 54 65 33:28.2 10:48/M


Female 55 to 59




Total
Place Name City Bib No Age Overall Time Pace
1 Carla Cardinal Homer MI 31 59 88 40:11.7 12:58/M
2 Deborah Lazaroff Jackson MI 271 55 94 59:07.3 19:04/M


Male 55 to 59




Total
Place Name City Bib No Age Overall Time Pace
1 Scott Tice Holt MI 184 56 18 23:39.4 7:38/M
2 Kim Shepherd Rives Junction MI 217 55 30 26:25.7 8:31/M
3 Jim Matthews Jackson MI 99 56 86 38:24.5 12:23/M


Male 60 to 66




Total
Place Name City Bib No Age Overall Time Pace
1 Dennis Swiggum Adrian MI 266 65 37 27:10.7 8:46/M
2 Robert Alexander Lambertville MI 214 65 60 32:33.0 10:30/M
3 Michael Hageman Redford MI 152 64 82 37:24.4 12:04/M
4 Anthony Oleynik Albion MI 13 63 84 37:39.5 12:09/M
5 Douglas Paler Jackson MI 63 63 92 43:45.1 14:07/M


Male 67 and over




Total
Place Name City Bib No Age Overall Time Pace
1 Richard Bayes Hudson MI 173 67 63 33:00.5 10:39/M


Male no age given




Total
Place Name City Bib No Age Overall Time Pace
1 Luke Brown Gaylord MI 263 99 10 21:16.5 6:52/M
2 Kurt Spratt Hillsdale MI 276 99 12 21:33.2 6:57/M
3 Nathan Boyd Jackson MI 264 99 38 27:11.9 8:46/M
4 Dale Maddox Tecumseh MI 252 99 39 27:40.9 8:55/M


Overall Female Open Winners




Total
Place Name City Bib No Age Overall Time Pace
1 Linda Rowley Rives Junction MI 134 60 1 38:24.3 12:23/M


Overall Male Open Winners




Total
Place Name City Bib No Age Overall Time Pace
1 Max Lowry Brooklyn MI 258 7 6 46:02.9 14:51/M


Overall Female Master Winners




Total
Place Name City Bib No Age Overall Time Pace
1 Jennifer Zysk Somerset MI 95 40 3 44:25.6 14:20/M


Overall Male Master Winners




Total
Place Name City Bib No Age Overall Time Pace
1 Jeff Guillemette Cement City MI 90 61 9 50:02.8 16:08/M


Female 14 and under




Total
Place Name City Bib No Age Overall Time Pace
1 Cameron Elliott Maumee OH 275 10 10 50:11.3 16:11/M
2 Emma Bain Riverview MI 68 9 16 54:17.2 17:31/M
3 Autumn Foster Jackson MI 16 10 25 1:06:20.9 21:24/M


Male 14 and under




Total
Place Name City Bib No Age Overall Time Pace
1 Brandon Bain Allen Pk MI 25 12 17 54:17.5 17:31/M
2 Benjamin Kiszka Jackson MI 280 11 23 1:02:41.2 20:13/M
3 Noah Kiszka Jackson MI 278 07 28 1:06:31.3 21:27/M


Male 15 to 17




Total
Place Name City Bib No Age Overall Time Pace
1 Chris Dew Jackson MI 234 15 22 58:39.4 18:55/M


Female 18 to 24




Total
Place Name City Bib No Age Overall Time Pace
1 Brittany Ganzhorn Albion MI 28 23 19 56:12.9 18:08/M


Female 30 to 34




Total
Place Name City Bib No Age Overall Time Pace
1 Amanda Kobasic Manitou Beach MI 237 31 5 44:41.3 14:25/M


Female 35 to 39




Total
Place Name City Bib No Age Overall Time Pace
1 Celia Dew Jackson MI 233 36 2 40:38.0 13:06/M
2 Gina Guillenette Chicago IL 274 37 11 50:11.7 16:11/M
3 Robilyn Swisher Hillsdale MI 178 37 15 52:36.6 16:58/M


Male 35 to 39




Total
Place Name City Bib No Age Overall Time Pace
1 Nathan Foster Jackson MI 159 37 26 1:06:21.4 21:24/M


Female 40 to 44




Total
Place Name City Bib No Age Overall Time Pace
1 Barbara Bain Allen Pk MI 17 41 24 1:04:49.8 20:55/M


Male 40 to 44




Total
Place Name City Bib No Age Overall Time Pace
1 Anthony Kiszka Jackson MI 279 42 27 1:06:30.8 21:27/M


Female 45 to 49




Total
Place Name City Bib No Age Overall Time Pace
1 Carrie Mosurak Horton MI 33 46 7 46:32.3 15:01/M
2 Lucia Elston Jerome MI 231 46 12 50:51.6 16:24/M


Female 50 to 54




Total
Place Name City Bib No Age Overall Time Pace
1 Sandra Wagner Defiance OH 180 51 4 44:27.2 14:20/M
2 Julie Ferris Cement City MI 230 50 13 50:51.9 16:24/M
3 Tammy Dean Hanover MI 254 53 18 55:33.6 17:55/M
4 Jeni Khon Jackson MI 235 52 21 58:39.2 18:55/M


Female 60 to 66




Total
Place Name City Bib No Age Overall Time Pace
1 Janet Guillemette Cement City MI 81 65 8 50:02.6 16:08/M


Male 60 to 66




Total
Place Name City Bib No Age Overall Time Pace
1 James Martin Jerome MI 241 66 14 52:35.0 16:58/M


Female no age given




Total
Place Name City Bib No Age Overall Time Pace
1 Tammy Alger Somerset Center MI 239 99 20 56:14.4 18:08/M